Eola, IL

9:09 PM CDT on September 15, 2014 (GMT -0500)
Lewis University | Change Station
CLOSE
Current Station
Airport
Location: Romeoville,
Elevation: 673 ft
Nearby Weather Stations

Elev 673 ft 41.60 °N, 88.10 °W | Updated 14 minutes ago

Overcast
Overcast
55 °F
Feels Like 55 °F
N
8
Wind Variable Wind from NNE

Today
High -- | Low -- °F
--% Chance of Precip.
Yesterday
High -- | Low -- °F
Precip. -- in
6:33 AM 7:02 PM
Waning Gibbous, 50% visible
Pressure 30.14 in
Visibility 7.0 miles
Clouds Mostly Cloudy 1400 ft
Mostly Cloudy 1800 ft
Overcast 2600 ft
Dew Point 55 °F
Humidity 99%
Rainfall 0.00 in
Snow Depth Not available.
UV 0 out of 12
Pollen 4.50 out of 12
Ozone Good
PM2.5 Moderate
Flu Activity Not available.
METAR KLOT 160155Z AUTO 02007KT 7SM BKN014 BKN018 OVC026 13/13 A3014 RMK AO2 T01280127

More Conditions Fewer Conditions

Pressure 30.14 in
Visibility 7.0 miles
Clouds Mostly Cloudy 1400 ft
Mostly Cloudy 1800 ft
Overcast 2600 ft
Dew Point 55 °F
Humidity 99%
Rainfall 0.00 in
Snow Depth Not available.
UV 0 out of 12
Pollen 4.50 out of 12
Ozone Good
PM2.5 Moderate
Flu Activity Not available.
METAR KLOT 160155Z AUTO 02007KT 7SM BKN014 BKN018 OVC026 13/13 A3014 RMK AO2 T01280127

More Conditions Fewer Conditions

10-Day Weather Forecast

Almanac

Astronomy

Sep. 15, 2014 Rise Set
Actual Time 6:33 AM CDT 7:02 PM CDT
Civil Twilight 6:05 AM CDT 7:30 PM CDT
Nautical Twilight 5:32 AM CDT 8:03 PM CDT
Astronomical Twilight 4:58 AM CDT 8:36 PM CDT
Moon 11:40 PM CDT (9/15) 1:38 PM CDT (9/15)
Length of Visible Light 13h 25m
Length of Day
12h 29m
Tomorrow will be 2m 46s shorter.
Waning Gibbous, 50% of the Moon is Illuminated
Today
Waning Gibbous
Sep 24
New
Oct 1
First Quarter
Oct 8
Full
Oct 15
Last Quarter

Today's Extremes

State Highs State Lows

Community

WunderPhotos

Upload Photos

1,753,650 photos uploaded!

WunderBlogs® & News

Nearby

Air Quality

  Air Quality AQ Index Pollutant
Yesterday Moderate
PM2.5
Yesterday Good
OZONE
Current Moderate
PM2.5
Current Good
OZONE
Monday Moderate
PM2.5
Tuesday Good
PM2.5
Wednesday Good
PM2.5
Thursday Moderate
PM2.5
Friday Moderate
PM2.5

Snow Depth

Station Depth Elevation
No new snow has been reported.

Earthquake Activity

City Distance Mag. Time & Date
No recent earthquake activity has been reported nearby.
Minimum magnitude displayed is 2.5.

Coastal Water Temperatures

Place Temperature
No Stations Reporting

Nearby Weather Stations